Time;durP1;ratioP1;P1;durP2;ratioP2;P2;SDS_P1;SDS_P2;PMS_P1;PMS_P2;Temp;Humidity;BMP_temperature;BMP_pressure;BME280_temperature;BME280_humidity;BME280_pressure;Samples;Min_cycle;Max_cycle;Signal;HPM_P1;HPM_P2
2022/05/11 00:00:42;;;;;;;1999.90;999.90;;;;;;;20.20;44.53;95582.84;5013076;28;20459;-70
2022/05/11 00:03:07;;;;;;;1999.90;999.90;;;;;;;20.20;44.77;95579.34;5012841;28;20076;-71
2022/05/11 00:05:33;;;;;;;1999.90;999.90;;;;;;;20.18;44.96;95585.13;4995538;28;20026;-70
2022/05/11 00:07:59;;;;;;;1999.90;999.90;;;;;;;20.10;44.83;95583.38;5012653;28;20065;-71
2022/05/11 00:10:24;;;;;;;1999.90;999.90;;;;;;;20.05;44.88;95585.59;5013038;28;20030;-71
2022/05/11 00:12:50;;;;;;;1999.90;999.90;;;;;;;20.00;45.04;95589.34;4995361;28;20375;-70
2022/05/11 00:15:19;;;;;;;1999.90;999.90;;;;;;;19.91;45.21;95586.06;5012813;28;20089;-70
2022/05/11 00:17:45;;;;;;;1999.90;999.90;;;;;;;19.68;45.48;95556.25;5012629;28;20053;-71
2022/05/11 00:20:11;;;;;;;1999.90;999.90;;;;;;;19.73;45.68;95570.25;4994920;28;20111;-71
2022/05/11 00:22:37;;;;;;;1999.90;999.90;;;;;;;19.66;46.30;95586.31;5012741;28;20041;-71
2022/05/11 00:25:05;;;;;;;1999.90;999.90;;;;;;;19.64;46.19;95576.97;4994873;28;20026;-70
2022/05/11 00:27:31;;;;;;;1999.90;999.90;;;;;;;19.58;46.47;95584.53;4995126;28;20442;-70
2022/05/11 00:29:57;;;;;;;1999.90;999.90;;;;;;;19.50;46.57;95572.03;5012128;28;20104;-70
2022/05/11 00:32:25;;;;;;;1999.90;999.90;;;;;;;19.46;46.53;95571.16;4994986;28;20060;-71
2022/05/11 00:34:51;;;;;;;1999.90;999.90;;;;;;;19.49;46.67;95571.22;5012778;28;20037;-71
2022/05/11 00:37:16;;;;;;;1999.90;999.90;;;;;;;19.42;46.70;95571.06;5012557;28;20022;-70
2022/05/11 00:39:42;;;;;;;1999.90;999.90;;;;;;;19.22;46.58;95548.63;4994760;28;20463;-70
2022/05/11 00:42:07;;;;;;;1999.90;999.90;;;;;;;19.33;47.09;95566.97;5012202;28;20028;-70
2022/05/11 00:44:33;;;;;;;1999.90;999.90;;;;;;;19.26;46.93;95556.81;5012499;28;20033;-70
2022/05/11 00:47:10;;;;;;;1999.90;999.90;;;;;;;19.25;47.23;95566.03;5012033;28;20060;-70
2022/05/11 00:49:57;;;;;;;1999.90;999.90;;;;;;;19.21;47.37;95565.94;5011730;28;20028;-70
2022/05/11 00:52:24;;;;;;;1999.90;999.90;;;;;;;19.23;47.64;95563.66;5012015;28;20104;-70
2022/05/11 00:55:00;;;;;;;1999.90;999.90;;;;;;;19.17;47.63;95562.38;5012165;28;20507;-71
2022/05/11 00:57:48;;;;;;;1999.90;999.90;;;;;;;19.15;47.83;95566.56;5011983;28;20068;-68
2022/05/11 01:00:14;;;;;;;1999.90;999.90;;;;;;;19.07;48.03;95562.13;5000957;28;20053;-71
2022/05/11 01:02:43;;;;;;;1999.90;999.90;;;;;;;19.00;47.95;95543.84;4994340;28;20474;-69
2022/05/11 01:05:09;;;;;;;1999.90;999.90;;;;;;;18.87;48.18;95529.66;5011662;28;20030;-69
2022/05/11 01:07:36;;;;;;;1999.90;999.90;;;;;;;19.02;48.36;95563.16;5011785;28;20379;-70
2022/05/11 01:10:03;;;;;;;1999.90;999.90;;;;;;;18.95;48.69;95552.22;4993701;28;20471;-69
2022/05/11 01:12:38;;;;;;;1999.90;999.90;;;;;;;18.88;48.59;95543.91;5011804;28;20114;-69
2022/05/11 01:15:05;;;;;;;1999.90;999.90;;;;;;;18.80;48.92;95540.28;5011805;28;20576;-70
2022/05/11 01:17:36;;;;;;;1999.90;999.90;;;;;;;18.86;48.75;95560.44;5011638;28;20470;-71
2022/05/11 01:20:05;;;;;;;1999.90;999.90;;;;;;;18.76;48.89;95544.00;5011318;28;20030;-70
2022/05/11 01:22:37;;;;;;;1999.90;999.90;;;;;;;18.81;48.90;95555.31;4994120;28;20026;-69
2022/05/11 01:25:04;;;;;;;;;;;;;;;18.79;49.03;95551.41;5012186;28;20022;-69
2022/05/11 01:27:44;;;;;;;1999.90;999.90;;;;;;;18.68;49.18;95551.91;4994059;28;19994;-71
2022/05/11 01:30:17;;;;;;;1999.90;999.90;;;;;;;18.70;49.45;95560.44;4993429;28;20382;-71
2022/05/11 01:32:46;;;;;;;1999.90;999.90;;;;;;;18.68;49.52;95553.81;5011423;28;20026;-70
2022/05/11 01:35:30;;;;;;;1999.90;999.90;;;;;;;18.66;49.42;95550.66;5011008;28;20659;-70
2022/05/11 01:38:08;;;;;;;1999.90;999.90;;;;;;;18.58;49.70;95546.19;5010282;28;20542;-70
2022/05/11 01:40:34;;;;;;;1999.90;999.90;;;;;;;18.53;49.84;95549.94;4993305;28;20033;-70
2022/05/11 01:42:59;;;;;;;1999.90;999.90;;;;;;;18.44;50.00;95533.16;5010971;28;20520;-71
2022/05/11 01:45:24;;;;;;;1999.90;999.90;;;;;;;18.43;49.89;95531.59;4993847;28;20026;-70
2022/05/11 01:47:54;;;;;;;1999.90;999.90;;;;;;;18.25;50.14;95511.47;4993568;28;20057;-70
2022/05/11 01:50:19;;;;;;;1999.90;999.90;;;;;;;18.41;50.25;95544.59;4993242;28;20026;-70
2022/05/11 01:52:44;;;;;;;1999.90;999.90;;;;;;;18.38;50.31;95531.84;4993341;28;20046;-70
2022/05/11 01:55:10;;;;;;;1999.90;999.90;;;;;;;18.46;50.34;95541.66;5010806;28;20053;-70
2022/05/11 01:57:35;;;;;;;1999.90;999.90;;;;;;;18.45;50.43;95543.56;5010953;28;20038;-70
2022/05/11 02:00:01;;;;;;;1999.90;999.90;;;;;;;18.44;50.66;95538.53;5010435;28;20018;-70
2022/05/11 02:02:26;;;;;;;1999.90;999.90;;;;;;;18.46;50.50;95538.97;4993019;28;20061;-69
2022/05/11 02:07:50;;;;;;;1999.90;999.90;;;;;;;18.41;50.26;95506.91;5009854;28;20040;-68
2022/05/11 02:10:22;;;;;;;1999.90;999.90;;;;;;;18.57;50.42;95526.56;5010110;28;20076;-70
2022/05/11 02:12:48;;;;;;;1999.90;999.90;;;;;;;18.62;50.18;95531.69;5009456;28;20113;-70
2022/05/11 02:15:14;;;;;;;1999.90;999.90;;;;;;;18.69;50.26;95534.63;4993017;28;20482;-70
2022/05/11 02:17:41;;;;;;;1999.90;999.90;;;;;;;18.57;49.89;95507.69;5010460;28;20033;-69
2022/05/11 02:20:07;;;;;;;1999.90;999.90;;;;;;;18.74;49.91;95527.41;5010093;28;20094;-69
2022/05/11 02:22:32;;;;;;;1999.90;999.90;;;;;;;18.70;49.61;95519.22;4992901;28;20056;-70
2022/05/11 02:24:57;;;;;;;1999.90;999.90;;;;;;;18.70;49.54;95511.16;4992623;28;20538;-69
2022/05/11 02:27:23;;;;;;;1999.90;999.90;;;;;;;18.75;49.47;95523.59;4992956;28;20034;-70
2022/05/11 02:29:48;;;;;;;1999.90;999.90;;;;;;;18.70;49.70;95530.78;5009941;28;20720;-69
2022/05/11 02:32:14;;;;;;;1999.90;999.90;;;;;;;18.55;49.69;95504.56;5010343;28;20057;-69
2022/05/11 02:37:23;;;;;;;1999.90;999.90;;;;;;;18.50;49.86;95521.00;5010540;28;20449;-69
2022/05/11 02:39:48;;;;;;;1999.90;999.90;;;;;;;18.29;49.95;95496.97;4992225;28;20025;-70
2022/05/11 02:42:17;;;;;;;1999.90;999.90;;;;;;;18.44;50.13;95520.47;4992434;28;20065;-70
2022/05/11 02:44:42;;;;;;;1999.90;999.90;;;;;;;18.47;50.22;95534.34;4992775;28;20026;-70
2022/05/11 02:47:08;;;;;;;1999.90;999.90;;;;;;;18.40;50.33;95524.97;5010029;28;20430;-70
2022/05/11 02:49:33;;;;;;;1999.90;999.90;;;;;;;18.34;50.44;95522.88;5009814;28;20050;-70
2022/05/11 02:51:59;;;;;;;1999.90;999.90;;;;;;;18.36;50.38;95540.25;5010083;28;20144;-70
2022/05/11 02:54:24;;;;;;;1999.90;999.90;;;;;;;18.33;50.38;95543.63;5010159;28;20299;-71
2022/05/11 02:56:50;;;;;;;1999.90;999.90;;;;;;;18.25;50.63;95530.31;5010228;28;20026;-71
2022/05/11 02:59:15;;;;;;;1999.90;999.90;;;;;;;18.30;50.58;95533.53;5009616;28;20022;-70
2022/05/11 03:01:41;;;;;;;1999.90;999.90;;;;;;;18.07;50.66;95502.91;5010028;28;20073;-70
2022/05/11 03:04:06;;;;;;;1999.90;999.90;;;;;;;18.10;50.55;95508.38;4992307;28;20471;-71
2022/05/11 03:06:31;;;;;;;1999.90;999.90;;;;;;;18.22;50.70;95526.41;4992553;28;20072;-71
2022/05/11 03:08:57;;;;;;;1999.90;999.90;;;;;;;18.12;50.45;95506.16;5009486;28;20114;-70
2022/05/11 03:11:22;;;;;;;1999.90;999.90;;;;;;;18.35;50.43;95540.59;5010027;28;20026;-70
2022/05/11 03:13:48;;;;;;;1999.90;999.90;;;;;;;18.41;50.48;95536.53;4992300;28;20482;-70
2022/05/11 03:16:13;;;;;;;1999.90;999.90;;;;;;;18.48;50.32;95542.13;5010040;28;20030;-70
2022/05/11 03:18:39;;;;;;;1999.90;999.90;;;;;;;18.45;50.12;95523.94;5009310;28;20092;-70
2022/05/11 03:21:04;;;;;;;1999.90;999.90;;;;;;;18.60;50.14;95535.88;5009351;28;20498;-71
2022/05/11 03:23:29;;;;;;;1999.90;999.90;;;;;;;18.74;49.96;95546.28;5009722;28;20470;-70
2022/05/11 03:25:56;;;;;;;1999.90;999.90;;;;;;;18.82;49.72;95539.91;4992290;28;20033;-69
2022/05/11 03:28:22;;;;;;;1999.90;999.90;;;;;;;18.80;49.42;95510.63;5009475;28;20026;-69
2022/05/11 03:30:47;;;;;;;1999.90;999.90;;;;;;;19.05;48.90;95543.59;5008337;28;20033;-69
2022/05/11 03:35:57;;;;;;;1999.90;999.90;;;;;;;19.09;48.50;95546.34;5009829;28;20113;-69
2022/05/11 03:38:22;;;;;;;1999.90;999.90;;;;;;;19.09;48.47;95552.56;5009525;28;20068;-69
2022/05/11 03:40:47;;;;;;;1999.90;999.90;;;;;;;19.08;48.60;95550.97;5009589;28;20064;-70
2022/05/11 03:43:13;;;;;;;1999.90;999.90;;;;;;;19.11;48.58;95554.91;5009674;28;20094;-69
2022/05/11 03:45:38;;;;;;;1999.90;999.90;;;;;;;19.00;48.75;95532.28;5009594;28;20022;-69
2022/05/11 03:48:04;;;;;;;1999.90;999.90;;;;;;;18.98;48.22;95518.38;4991934;28;20113;-70
2022/05/11 03:50:29;;;;;;;1999.90;999.90;;;;;;;19.23;48.55;95549.41;5009386;28;20030;-69
2022/05/11 03:52:56;;;;;;;1999.90;999.90;;;;;;;19.25;48.40;95552.56;5009508;28;20478;-70
2022/05/11 03:55:23;;;;;;;1999.90;999.90;;;;;;;19.26;48.22;95545.25;5009771;28;20057;-70
2022/05/11 03:57:48;;;;;;;1999.90;999.90;;;;;;;19.18;47.98;95533.50;5009538;28;20018;-70
2022/05/11 04:00:20;;;;;;;1999.90;999.90;;;;;;;19.18;48.16;95546.97;4992829;28;20054;-70
2022/05/11 04:02:47;;;;;;;1999.90;999.90;;;;;;;19.09;48.36;95540.97;5013257;28;20033;-70
2022/05/11 04:05:13;;;;;;;1999.90;999.90;;;;;;;18.98;48.50;95546.09;4995781;28;20165;-70
2022/05/11 04:07:39;;;;;;;1999.90;999.90;;;;;;;18.86;48.38;95533.50;4995630;28;20026;-71
2022/05/11 04:10:06;;;;;;;1999.90;999.90;;;;;;;18.95;48.82;95546.81;5011586;28;20025;-71
2022/05/11 04:12:31;;;;;;;1999.90;999.90;;;;;;;18.97;48.65;95544.53;5012192;28;20030;-70
2022/05/11 04:14:57;;;;;;;1999.90;999.90;;;;;;;19.03;48.58;95542.38;5012616;28;20041;-69
2022/05/11 04:17:23;;;;;;;1999.90;999.90;;;;;;;19.03;48.52;95543.16;4999374;28;20033;-70
2022/05/11 04:19:49;;;;;;;1999.90;999.90;;;;;;;19.10;48.42;95546.03;5010891;28;20398;-70
2022/05/11 04:22:14;;;;;;;1999.90;999.90;;;;;;;19.08;48.39;95526.72;5011590;28;20034;-70
2022/05/11 04:24:40;;;;;;;1999.90;999.90;;;;;;;19.32;47.99;95535.75;5011367;28;20429;-70
2022/05/11 04:27:05;;;;;;;1999.90;999.90;;;;;;;19.41;47.96;95525.56;5011338;28;20030;-71
2022/05/11 04:29:31;;;;;;;1999.90;999.90;;;;;;;19.59;47.48;95537.56;5010973;28;20461;-71
2022/05/11 04:31:57;;;;;;;1999.90;999.90;;;;;;;19.77;47.25;95535.25;5012619;28;20037;-70
2022/05/11 04:34:23;;;;;;;1999.90;999.90;;;;;;;20.00;46.78;95529.94;5011416;28;20030;-69
2022/05/11 04:36:49;;;;;;;1999.90;999.90;;;;;;;20.00;46.23;95524.53;5011188;28;20053;-71
2022/05/11 04:39:14;;;;;;;1999.90;999.90;;;;;;;20.25;45.93;95533.94;5012113;28;20022;-70
2022/05/11 04:41:40;;;;;;;1999.90;999.90;;;;;;;20.52;45.67;95544.88;5012243;28;20076;-70
2022/05/11 04:44:06;;;;;;;1999.90;999.90;;;;;;;20.64;45.16;95530.44;5011969;28;20120;-72
2022/05/11 04:46:34;;;;;;;1999.90;999.90;;;;;;;20.70;44.42;95524.38;5009941;28;20112;-69
2022/05/11 04:49:19;;;;;;;1999.90;999.90;;;;;;;20.99;44.21;95541.88;5013387;28;20034;-69
2022/05/11 04:51:59;;;;;;;1999.90;999.90;;;;;;;21.29;43.93;95554.72;4994683;28;20026;-70
2022/05/11 04:54:25;;;;;;;1999.90;999.90;;;;;;;21.50;43.90;95555.09;5004657;28;20108;-72
2022/05/11 04:56:50;;;;;;;1999.90;999.90;;;;;;;21.69;43.07;95556.91;5010910;28;20471;-72
2022/05/11 04:59:16;;;;;;;1999.90;999.90;;;;;;;21.85;42.85;95564.88;5009305;28;20120;-72
2022/05/11 05:01:42;;;;;;;1999.90;999.90;;;;;;;21.83;42.60;95533.91;4991593;28;20037;-74
2022/05/11 05:04:07;;;;;;;1999.90;999.90;;;;;;;22.05;42.48;95533.00;5011052;28;20371;-70
2022/05/11 05:06:33;;;;;;;1999.90;999.90;;;;;;;22.26;42.04;95551.50;4991908;28;20111;-70
2022/05/11 05:09:04;;;;;;;1999.90;999.90;;;;;;;22.29;41.81;95518.25;4993676;28;20026;-70
2022/05/11 05:11:29;;;;;;;1999.90;999.90;;;;;;;22.56;41.19;95538.69;5009744;28;20025;-70
2022/05/11 05:13:55;;;;;;;1999.90;999.90;;;;;;;22.80;40.73;95550.16;4991545;28;20045;-71
2022/05/11 05:16:20;;;;;;;1999.90;999.90;;;;;;;22.89;40.79;95545.25;4990140;28;20549;-70
2022/05/11 05:18:46;;;;;;;1999.90;999.90;;;;;;;22.96;40.04;95541.81;5018284;28;20594;-73
2022/05/11 05:21:11;;;;;;;1999.90;999.90;;;;;;;23.12;39.62;95547.78;4998200;28;20037;-70
2022/05/11 05:23:37;;;;;;;1999.90;999.90;;;;;;;23.15;39.87;95536.19;5015832;28;20026;-70
2022/05/11 05:26:02;;;;;;;1999.90;999.90;;;;;;;23.35;39.59;95553.78;4993434;28;20041;-69
2022/05/11 05:31:16;;;;;;;1999.90;999.90;;;;;;;23.53;39.10;95564.00;5011255;28;20096;-71
2022/05/11 05:33:42;;;;;;;1999.90;999.90;;;;;;;23.52;38.76;95576.03;5004324;28;20045;-69
2022/05/11 05:36:08;;;;;;;1999.90;999.90;;;;;;;23.54;38.95;95570.97;5004696;28;20080;-71
2022/05/11 05:38:36;;;;;;;1999.90;999.90;;;;;;;23.40;38.87;95549.19;5011930;28;20396;-70
2022/05/11 05:41:02;;;;;;;1999.90;999.90;;;;;;;23.32;39.05;95534.75;5008688;28;20025;-68
2022/05/11 05:43:27;;;;;;;1999.90;999.90;;;;;;;23.50;38.93;95559.34;5020329;28;20083;-66
2022/05/11 05:45:54;;;;;;;1999.90;999.90;;;;;;;23.66;38.49;95578.09;5007636;28;20113;-67
2022/05/11 05:48:20;;;;;;;1999.90;999.90;;;;;;;23.76;38.73;95578.19;5008544;28;20038;-67
2022/05/11 05:50:48;;;;;;;1999.90;999.90;;;;;;;23.79;38.59;95580.13;5012910;28;20528;-67
2022/05/11 05:53:19;;;;;;;1999.90;999.90;;;;;;;23.90;38.43;95573.97;5024377;28;20026;-67
2022/05/11 05:55:45;;;;;;;1999.90;999.90;;;;;;;23.89;38.19;95567.75;5001206;28;20049;-67
2022/05/11 05:58:11;;;;;;;1999.90;999.90;;;;;;;24.03;38.45;95583.38;5010451;28;20034;-69
2022/05/11 06:00:37;;;;;;;1999.90;999.90;;;;;;;24.03;38.04;95575.22;4992516;28;20088;-67
2022/05/11 06:03:03;;;;;;;1999.90;999.90;;;;;;;24.13;37.59;95577.22;5010146;28;20037;-68
2022/05/11 06:05:29;;;;;;;1999.90;999.90;;;;;;;24.10;37.49;95567.88;4992551;28;20523;-68
2022/05/11 06:07:56;;;;;;;1999.90;999.90;;;;;;;24.15;37.50;95574.88;5021211;28;20033;-67
2022/05/11 06:10:23;;;;;;;1999.90;999.90;;;;;;;24.09;37.86;95573.69;5023338;28;20040;-67
2022/05/11 06:12:49;;;;;;;1999.90;999.90;;;;;;;24.22;37.77;95561.34;5009343;28;20040;-67
2022/05/11 06:15:14;;;;;;;1999.90;999.90;;;;;;;24.35;37.31;95568.03;5009114;28;20030;-67
2022/05/11 06:17:40;;;;;;;1999.90;999.90;;;;;;;24.46;36.75;95578.94;5009838;28;20385;-68
2022/05/11 06:20:08;;;;;;;1999.90;999.90;;;;;;;24.55;36.75;95581.31;5007986;28;20723;-68
2022/05/11 06:22:34;;;;;;;1999.90;999.90;;;;;;;24.56;37.02;95563.81;5007006;28;20030;-68
2022/05/11 06:25:00;;;;;;;1999.90;999.90;;;;;;;24.79;36.38;95582.56;5007467;28;20037;-69
2022/05/11 06:27:26;;;;;;;1999.90;999.90;;;;;;;24.86;36.38;95571.69;5010242;28;20029;-67
2022/05/11 06:29:54;;;;;;;1999.90;999.90;;;;;;;24.89;36.38;95565.50;5006752;28;20034;-67
2022/05/11 06:32:19;;;;;;;1999.90;999.90;;;;;;;25.00;35.97;95582.59;5010383;28;20038;-67
2022/05/11 06:34:46;;;;;;;1999.90;999.90;;;;;;;25.14;36.13;95579.16;5010819;28;20482;-67
2022/05/11 06:37:12;;;;;;;1999.90;999.90;;;;;;;25.27;36.36;95582.28;5010562;28;20109;-67
2022/05/11 06:39:37;;;;;;;1999.90;999.90;;;;;;;25.35;36.02;95579.19;5010188;28;20117;-66
2022/05/11 06:42:11;;;;;;;1999.90;999.90;;;;;;;25.44;35.87;95576.06;5010695;28;20510;-66
2022/05/11 06:44:36;;;;;;;1999.90;999.90;;;;;;;25.25;35.38;95568.28;5020752;28;20827;-66
2022/05/11 06:47:03;;;;;;;1999.90;999.90;;;;;;;24.66;35.86;95582.13;5012401;28;20116;-67
2022/05/11 06:49:29;;;;;;;1999.90;999.90;;;;;;;24.11;36.99;95585.00;5029790;28;20505;-66
2022/05/11 06:51:55;;;;;;;1999.90;999.90;;;;;;;24.84;36.33;95582.19;5012305;28;20036;-68
2022/05/11 06:59:48;;;;;;;1999.90;999.90;;;;;;;24.32;37.59;95576.94;5023525;28;20068;-67
2022/05/11 07:02:14;;;;;;;1999.90;999.90;;;;;;;24.82;36.77;95579.84;5029865;28;20049;-66
2022/05/11 07:04:40;;;;;;;1999.90;999.90;;;;;;;24.98;36.83;95575.97;5012510;28;20467;-66
2022/05/11 07:07:06;;;;;;;1999.90;999.90;;;;;;;24.73;37.17;95571.28;5030100;28;20029;-66
2022/05/11 07:09:34;;;;;;;1999.90;999.90;;;;;;;24.95;37.07;95563.16;5029715;28;20027;-66
2022/05/11 07:12:21;;;;;;;1999.90;999.90;;;;;;;25.33;36.44;95570.59;5029856;28;20029;-66
2022/05/11 07:14:57;;;;;;;1999.90;999.90;;;;;;;24.84;37.09;95577.53;5015155;28;20057;-66
2022/05/11 07:17:50;;;;;;;1999.90;999.90;;;;;;;25.24;36.95;95559.34;5011931;28;20032;-66
2022/05/11 07:20:27;;;;;;;1999.90;999.90;;;;;;;25.73;36.80;95565.91;5014473;28;20068;-67
2022/05/11 07:22:53;;;;;;;1999.90;999.90;;;;;;;25.91;36.36;95558.53;5010249;28;20117;-66
2022/05/11 07:25:21;;;;;;;1999.90;999.90;;;;;;;25.84;36.19;95560.47;5010266;28;20030;-68
2022/05/11 07:27:48;;;;;;;1999.90;999.90;;;;;;;24.95;37.69;95565.88;5010452;28;20028;-67
2022/05/11 07:30:23;;;;;;;1999.90;999.90;;;;;;;25.45;37.64;95558.56;5009122;28;20026;-67
2022/05/11 07:32:49;;;;;;;1999.90;999.90;;;;;;;25.95;36.62;95561.25;5014721;28;20029;-67
2022/05/11 07:35:14;;;;;;;1999.90;999.90;;;;;;;26.32;36.33;95559.97;5029719;28;20381;-66
2022/05/11 07:37:46;;;;;;;1999.90;999.90;;;;;;;26.58;36.27;95545.09;5033797;28;20022;-67
2022/05/11 07:40:12;;;;;;;1999.90;999.90;;;;;;;26.74;36.16;95559.03;5031875;28;20029;-66
2022/05/11 07:42:37;;;;;;;1999.90;999.90;;;;;;;26.43;36.02;95545.16;5033560;28;20032;-66
2022/05/11 07:45:03;;;;;;;1999.90;999.90;;;;;;;26.60;35.84;95556.38;5018446;28;20145;-67
2022/05/11 07:47:29;;;;;;;1999.90;999.90;;;;;;;24.97;37.29;95556.16;5012327;28;20017;-66
2022/05/11 07:49:55;;;;;;;1999.90;999.90;;;;;;;24.70;38.95;95547.56;5021607;28;20029;-67
2022/05/11 07:52:21;;;;;;;1999.90;999.90;;;;;;;24.64;39.01;95563.47;5020875;28;20037;-66
2022/05/11 07:54:46;;;;;;;1999.90;999.90;;;;;;;24.97;37.98;95517.28;5024343;28;20084;-66
2022/05/11 07:59:57;;;;;;;1999.90;999.90;;;;;;;25.99;36.35;95551.09;5012712;28;20088;-66
2022/05/11 08:02:32;;;;;;;1999.90;999.90;;;;;;;26.08;36.70;95561.59;5013422;28;20634;-67
2022/05/11 08:05:04;;;;;;;1999.90;999.90;;;;;;;26.43;35.92;95550.59;5011928;28;20028;-67
2022/05/11 08:07:42;;;;;;;1999.90;999.90;;;;;;;26.98;34.92;95553.84;5030469;28;20104;-67
2022/05/11 08:10:11;;;;;;;1999.90;999.90;;;;;;;26.51;36.06;95553.28;5023381;28;20485;-68
2022/05/11 08:12:37;;;;;;;1999.90;999.90;;;;;;;25.95;35.54;95542.19;5033000;28;20393;-67
2022/05/11 08:15:03;;;;;;;1999.90;999.90;;;;;;;24.98;38.09;95548.75;5020303;28;20117;-66
2022/05/11 08:17:32;;;;;;;1999.90;999.90;;;;;;;24.75;37.90;95554.56;5013122;28;20057;-66
2022/05/11 08:20:01;;;;;;;1999.90;999.90;;;;;;;25.71;36.43;95549.19;5012456;28;20032;-69
2022/05/11 08:22:28;;;;;;;1999.90;999.90;;;;;;;25.55;36.77;95548.84;4995027;28;20351;-67
2022/05/11 08:24:54;;;;;;;1999.90;999.90;;;;;;;25.86;36.26;95549.97;5013713;28;20029;-68
2022/05/11 08:27:25;;;;;;;1999.90;999.90;;;;;;;26.54;35.49;95541.59;5032696;28;20020;-67
2022/05/11 08:35:18;;;;;;;1999.90;999.90;;;;;;;27.17;32.73;95532.25;5013332;28;20092;-67
2022/05/11 08:37:44;;;;;;;1999.90;999.90;;;;;;;26.66;33.90;95535.69;5012918;28;20022;-67
2022/05/11 08:40:28;;;;;;;1999.90;999.90;;;;;;;26.46;34.07;95531.88;5025576;28;20036;-67
2022/05/11 08:42:55;;;;;;;1999.90;999.90;;;;;;;25.78;34.98;95542.97;5031395;28;20029;-66
2022/05/11 08:45:21;;;;;;;1999.90;999.90;;;;;;;26.07;34.84;95541.75;5017398;28;20105;-65
2022/05/11 08:47:50;;;;;;;1999.90;999.90;;;;;;;26.52;34.43;95542.00;5012596;28;20096;-66
2022/05/11 08:50:19;;;;;;;1999.90;999.90;;;;;;;26.84;34.25;95532.84;5012456;28;20029;-66
2022/05/11 08:52:50;;;;;;;1999.90;999.90;;;;;;;25.51;36.55;95545.34;5012601;28;20106;-66
2022/05/11 08:55:37;;;;;;;1999.90;999.90;;;;;;;24.77;37.49;95542.16;5012288;28;20045;-66
2022/05/11 08:58:08;;;;;;;1999.90;999.90;;;;;;;25.17;36.83;95540.25;4992475;28;20479;-66
2022/05/11 09:00:39;;;;;;;1999.90;999.90;;;;;;;25.76;36.80;95529.75;4987492;28;20080;-66
2022/05/11 09:03:26;;;;;;;1999.90;999.90;;;;;;;25.79;36.47;95533.63;4994506;28;20041;-67
2022/05/11 09:05:51;;;;;;;1999.90;999.90;;;;;;;25.92;36.21;95541.00;4994774;28;20104;-66
2022/05/11 09:08:16;;;;;;;1999.90;999.90;;;;;;;25.14;36.39;95539.13;4994328;28;20109;-66
2022/05/11 09:10:42;;;;;;;1999.90;999.90;;;;;;;25.14;37.56;95530.94;5012399;28;20058;-67
2022/05/11 09:13:13;;;;;;;1999.90;999.90;;;;;;;25.06;37.21;95534.00;5012150;28;20552;-66
2022/05/11 09:15:51;;;;;;;1999.90;999.90;;;;;;;25.52;37.02;95544.16;5011409;28;20065;-67
2022/05/11 09:18:17;;;;;;;1999.90;999.90;;;;;;;25.35;36.37;95537.56;5011843;28;20033;-66
2022/05/11 09:20:50;;;;;;;1999.90;999.90;;;;;;;24.99;35.92;95534.78;5012198;28;20553;-66
2022/05/11 09:23:31;;;;;;;1999.90;999.90;;;;;;;25.45;35.63;95531.34;5012388;28;20029;-66
2022/05/11 09:26:05;;;;;;;1999.90;999.90;;;;;;;25.87;35.27;95538.69;5012038;28;20072;-66
2022/05/11 09:28:37;;;;;;;1999.90;999.90;;;;;;;25.24;35.27;95540.28;5010789;28;20083;-66
2022/05/11 09:31:05;;;;;;;;;;;;;;;25.47;34.53;95531.72;5021951;28;20025;-66
2022/05/11 09:33:38;;;;;;;1999.90;999.90;;;;;;;25.33;35.58;95516.16;5013728;28;19917;-66
2022/05/11 09:36:04;;;;;;;1999.90;999.90;;;;;;;25.36;34.77;95520.81;5013869;28;20029;-66
2022/05/11 09:38:43;;;;;;;1999.90;999.90;;;;;;;25.39;34.54;95535.63;5031029;28;20032;-66
2022/05/11 09:41:17;;;;;;;1999.90;999.90;;;;;;;25.10;34.96;95526.66;5013577;28;20056;-67
2022/05/11 09:43:52;;;;;;;1999.90;999.90;;;;;;;25.50;34.09;95530.94;5031185;28;20029;-66
2022/05/11 09:46:26;;;;;;;1999.90;999.90;;;;;;;25.31;33.98;95523.16;5014789;28;20030;-66
2022/05/11 09:49:15;;;;;;;1999.90;999.90;;;;;;;25.39;34.00;95525.50;5011166;28;20053;-67
2022/05/11 09:51:46;;;;;;;1999.90;999.90;;;;;;;25.77;33.04;95534.03;5001997;28;20089;-65
2022/05/11 09:54:46;;;;;;;1999.90;999.90;;;;;;;26.01;32.66;95526.19;5011216;28;20036;-66
2022/05/11 09:57:12;;;;;;;1999.90;999.90;;;;;;;25.72;32.56;95518.06;5010810;28;20438;-67
2022/05/11 09:59:47;;;;;;;1999.90;999.90;;;;;;;26.00;31.99;95514.53;4992227;28;20089;-66
2022/05/11 10:02:25;;;;;;;1999.90;999.90;;;;;;;26.75;31.31;95518.88;5010895;28;20060;-66
2022/05/11 10:05:02;;;;;;;1999.90;999.90;;;;;;;26.70;30.66;95522.78;5011255;28;20076;-67
2022/05/11 10:07:32;;;;;;;1999.90;999.90;;;;;;;26.73;30.13;95532.91;4989158;28;20022;-68
2022/05/11 10:10:03;;;;;;;1999.90;999.90;;;;;;;25.84;32.00;95517.66;4989775;28;20471;-65
2022/05/11 10:12:35;;;;;;;1999.90;999.90;;;;;;;26.44;31.06;95511.25;4991289;28;20042;-66
2022/05/11 10:24:21;;;;;;;1999.90;999.90;;;;;;;28.31;29.43;95499.53;5010933;28;20049;-67
2022/05/11 10:26:56;;;;;;;1999.90;999.90;;;;;;;28.72;28.17;95488.47;5010667;28;20506;-67
2022/05/11 10:29:49;;;;;;;1999.90;999.90;;;;;;;26.18;29.67;95509.00;5010623;28;20021;-67
2022/05/11 10:32:20;;;;;;;1999.90;999.90;;;;;;;25.66;31.12;95519.63;5010649;28;20113;-72
2022/05/11 10:35:17;;;;;;;1999.90;999.90;;;;;;;26.30;30.22;95484.00;4997736;28;20073;-68
2022/05/11 10:37:56;;;;;;;1999.90;999.90;;;;;;;26.60;30.11;95504.53;5011843;28;20509;-69
2022/05/11 10:40:44;;;;;;;1999.90;999.90;;;;;;;25.96;29.20;95508.31;5012660;28;20037;-69
2022/05/11 10:44:08;;;;;;;1999.90;999.90;;;;;;;25.97;30.11;95498.19;5012671;28;20113;-69
2022/05/11 10:46:38;;;;;;;1999.90;999.90;;;;;;;26.52;29.38;95492.13;4958527;28;20034;-67
2022/05/11 10:49:41;;;;;;;1999.90;999.90;;;;;;;26.61;28.93;95473.34;4990599;28;20105;-68
2022/05/11 10:52:09;;;;;;;1999.90;999.90;;;;;;;27.04;27.56;95483.97;4991078;28;20034;-68
2022/05/11 10:54:40;;;;;;;1999.90;999.90;;;;;;;27.57;27.69;95488.22;4991116;28;20018;-67
2022/05/11 10:57:22;;;;;;;1999.90;999.90;;;;;;;28.61;27.89;95482.34;4990761;28;20102;-71
2022/05/11 11:00:00;;;;;;;1999.90;999.90;;;;;;;28.89;26.33;95472.94;4989985;28;20030;-67
2022/05/11 11:02:38;;;;;;;1999.90;999.90;;;;;;;27.36;27.68;95470.84;4990572;28;20117;-67
2022/05/11 11:05:19;;;;;;;1999.90;999.90;;;;;;;27.10;26.07;95472.25;5012934;28;20485;-68
2022/05/11 11:08:18;;;;;;;1999.90;999.90;;;;;;;26.27;28.96;95471.19;5016580;28;20026;-68
2022/05/11 11:11:09;;;;;;;1999.90;999.90;;;;;;;26.67;27.95;95474.50;4994409;28;20026;-69
2022/05/11 11:13:44;;;;;;;1999.90;999.90;;;;;;;26.53;27.49;95463.66;5014181;28;20467;-68
2022/05/11 11:16:12;;;;;;;1999.90;999.90;;;;;;;26.71;27.29;95467.03;5013224;28;20038;-69
2022/05/11 11:18:43;;;;;;;1999.90;999.90;;;;;;;26.73;27.80;95458.47;5013643;28;20040;-69
2022/05/11 11:21:10;;;;;;;1999.90;999.90;;;;;;;26.97;27.38;95454.75;4998545;28;20026;-69
2022/05/11 11:23:47;;;;;;;1999.90;999.90;;;;;;;28.08;26.93;95448.25;5032496;28;20060;-69
2022/05/11 11:26:46;;;;;;;1999.90;999.90;;;;;;;27.29;27.44;95453.75;5015561;28;20404;-69
2022/05/11 11:29:11;;;;;;;1999.90;999.90;;;;;;;27.09;27.61;95448.09;5031688;28;20030;-69
2022/05/11 11:31:56;;;;;;;1999.90;999.90;;;;;;;27.99;26.56;95435.06;5013234;28;20105;-69
2022/05/11 11:34:25;;;;;;;1999.90;999.90;;;;;;;27.47;25.51;95432.50;4996057;28;20045;-67
2022/05/11 11:36:51;;;;;;;1999.90;999.90;;;;;;;27.37;26.28;95436.88;5013479;28;20029;-67
2022/05/11 11:39:44;;;;;;;1999.90;999.90;;;;;;;28.07;24.97;95442.00;4994854;28;20033;-67